This is the latest recevied weather packets stored in our database for station/object KI5NYZ. If no packets are shown the sender has not sent any weather packets the latest 10 day(s).
| Time | Temp. | Humidity | Pressure | Rain* | Wind** | Luminosity | Snow |
|---|---|---|---|---|---|---|---|
| 1777779919 | 13.33° C | 67% | 1021.4 hPa | 0 mm | - | 0 W/m² | - |
| 1777778722 | 13.89° C | 64% | 1021.3 hPa | 0 mm | - | 0 W/m² | - |
| 1777773322 | 16.67° C | 52% | 1020.6 hPa | 0 mm | - | 0 W/m² | - |
| 1777763721 | 20.56° C | 35% | 1020.4 hPa | 0 mm | - | 426 W/m² | - |
| 1777763120 | 20° C | 35% | 1020.4 hPa | 0 mm | - | 455 W/m² | - |
| 1777762521 | 20° C | 36% | 1020.5 hPa | 0 mm | - | 499 W/m² | - |
| 1777758919 | 20° C | 37% | 1021.1 hPa | 0 mm | - | 422 W/m² | - |
| 1777755919 | 20° C | 36% | 1021.8 hPa | 0 mm | - | 864 W/m² | - |
| 1777746319 | 18.33° C | 42% | 1023.3 hPa | 0 mm | - | 384 W/m² | - |
| 1777742720 | 16.67° C | 45% | 1023.9 hPa | 0 mm | - | 964 W/m² | - |
| 1777734919 | 13.89° C | 60% | 1024 hPa | 0 mm | - | 135 W/m² | - |
| 1777731320 | 11.67° C | 70% | 1023.8 hPa | 0 mm | - | 101 W/m² | - |
| 1777724121 | 8.33° C | 81% | 1022.3 hPa | 0 mm | - | 11 W/m² | - |
| 1777723523 | 8.33° C | 81% | 1022.3 hPa | 0 mm | - | 4 W/m² | - |
| 1777719321 | 8.89° C | 84% | 1021.8 hPa | 0 mm | - | 0 W/m² | - |
| 1777716320 | 10° C | 85% | 1021.7 hPa | 0 mm | - | 0 W/m² | - |
| 1777715719 | 9.44° C | 81% | 1021.6 hPa | 0 mm | - | 0 W/m² | - |
| 1777715124 | 9.44° C | 83% | 1021.5 hPa | 0 mm | - | 0 W/m² | - |
| 1777706720 | 10° C | 75% | 1021.7 hPa | 0 mm | - | 0 W/m² | - |
| 1777702520 | 10.56° C | 72% | 1021.7 hPa | 0 mm | - | 0 W/m² | - |
| 1777701921 | 10.56° C | 73% | 1021.7 hPa | 0 mm | - | 0 W/m² | - |
| 1777701321 | 10.56° C | 74% | 1021.7 hPa | 0 mm | - | 0 W/m² | - |
| 1777694719 | 11.11° C | 74% | 1020.6 hPa | 0 mm | - | 0 W/m² | - |
| 1777693542 | 11.11° C | 71% | 1020.6 hPa | 0 mm | - | 0 W/m² | - |
| 1777691120 | 11.67° C | 65% | 1019.6 hPa | 0 mm | - | 0 W/m² | - |
* Rain latest hour (hover to see other rain measurements)
** Current wind speed in m/s (hover to see current wind gust speed)